Time;durP1;ratioP1;P1;durP2;ratioP2;P2;SDS_P1;SDS_P2;PMS_P1;PMS_P2;Temp;Humidity;BMP_temperature;BMP_pressure;BME280_temperature;BME280_humidity;BME280_pressure;Samples;Min_cycle;Max_cycle;Signal;HPM_P1;HPM_P2
2021/08/11 00:02:25;;;;;;;2.73;1.70;;;;;;;15.29;100.00;101179.47;5076040;28;20453;-71
2021/08/11 00:04:53;;;;;;;3.60;1.87;;;;;;;15.28;100.00;101178.66;5075609;28;20981;-71
2021/08/11 00:07:20;;;;;;;2.80;2.00;;;;;;;15.28;100.00;101184.13;5075936;28;20467;-71
2021/08/11 00:09:46;;;;;;;1.47;0.97;;;;;;;15.31;100.00;101183.47;5075922;28;20441;-71
2021/08/11 00:12:13;;;;;;;2.23;1.27;;;;;;;15.32;100.00;101178.84;5075828;28;20441;-71
2021/08/11 00:14:39;;;;;;;3.70;1.90;;;;;;;15.33;100.00;101177.72;5075402;28;21008;-71
2021/08/11 00:17:06;;;;;;;2.90;1.70;;;;;;;15.33;100.00;101189.44;5075748;28;20445;-71
2021/08/11 00:19:32;;;;;;;1.23;1.00;;;;;;;15.25;100.00;101192.13;5075660;28;20446;-71
2021/08/11 00:22:00;;;;;;;4.23;2.03;;;;;;;15.28;100.00;101191.50;5075298;28;20976;-71
2021/08/11 00:24:26;;;;;;;1.70;1.33;;;;;;;15.30;100.00;101200.19;5075590;28;20468;-71
2021/08/11 00:26:53;;;;;;;3.50;1.40;;;;;;;15.23;100.00;101200.66;5075571;28;20448;-71
2021/08/11 00:29:19;;;;;;;1.90;0.90;;;;;;;15.23;100.00;101188.91;5075502;28;20481;-71
2021/08/11 00:31:46;;;;;;;5.70;1.23;;;;;;;15.19;100.00;101194.22;5075477;28;20445;-71
2021/08/11 00:34:12;;;;;;;2.50;1.10;;;;;;;15.21;100.00;101200.16;5075332;28;20472;-70
2021/08/11 00:36:38;;;;;;;1.70;0.80;;;;;;;15.14;100.00;101202.56;5075421;28;20446;-71
2021/08/11 00:39:06;;;;;;;1.67;1.20;;;;;;;15.11;100.00;101203.19;5075006;28;20823;-71
2021/08/11 00:41:33;;;;;;;1.93;1.30;;;;;;;15.13;100.00;101203.66;5074900;28;21009;-71
2021/08/11 00:44:00;;;;;;;11.20;1.83;;;;;;;15.08;100.00;101203.81;5075174;28;20468;-71
2021/08/11 00:46:26;;;;;;;1.33;1.00;;;;;;;14.95;100.00;101199.25;5074958;28;20457;-71
2021/08/11 00:48:53;;;;;;;2.80;1.90;;;;;;;14.87;100.00;101201.66;5075179;28;20449;-71
2021/08/11 00:51:19;;;;;;;2.80;1.57;;;;;;;14.76;100.00;101205.75;5075082;28;20446;-71
2021/08/11 00:53:48;;;;;;;2.80;1.40;;;;;;;14.65;100.00;101201.69;5075004;28;20465;-71
2021/08/11 00:56:18;;;;;;;2.33;1.10;;;;;;;14.61;100.00;101201.53;5075015;28;20481;-71
2021/08/11 00:58:46;;;;;;;1.90;1.40;;;;;;;14.56;100.00;101206.28;5075023;28;20425;-71
2021/08/11 01:01:12;;;;;;;2.10;1.23;;;;;;;14.48;100.00;101210.59;5074802;28;20888;-72
2021/08/11 01:03:39;;;;;;;1.67;1.43;;;;;;;14.56;100.00;101207.09;5074530;28;20979;-73
2021/08/11 01:06:06;;;;;;;2.00;1.50;;;;;;;14.56;100.00;101215.28;5074861;28;20445;-73
2021/08/11 01:08:33;;;;;;;2.20;1.70;;;;;;;14.60;100.00;101210.00;5074792;28;20491;-73
2021/08/11 01:11:00;;;;;;;2.67;1.70;;;;;;;14.57;100.00;101216.09;5074716;28;20449;-73
2021/08/11 01:13:29;;;;;;;2.43;1.70;;;;;;;14.46;100.00;101210.06;5074666;28;20485;-72
2021/08/11 01:15:56;;;;;;;3.93;1.70;;;;;;;14.54;100.00;101217.53;5074924;28;20437;-72
2021/08/11 01:18:22;;;;;;;2.83;1.83;;;;;;;14.54;100.00;101214.78;5074627;28;20437;-73
2021/08/11 01:20:58;;;;;;;3.40;1.70;;;;;;;14.52;100.00;101219.75;5074453;28;20498;-72
2021/08/11 01:23:29;;;;;;;2.43;1.40;;;;;;;14.53;100.00;101215.13;5074454;28;20432;-72
2021/08/11 01:26:03;;;;;;;1.47;0.87;;;;;;;14.49;100.00;101214.94;5074484;28;20436;-72
2021/08/11 01:28:44;;;;;;;2.80;1.37;;;;;;;14.47;100.00;101210.84;5074459;28;20460;-72
2021/08/11 01:31:16;;;;;;;2.00;1.10;;;;;;;14.37;100.00;101215.44;5074043;28;20795;-72
2021/08/11 01:33:54;;;;;;;1.80;1.20;;;;;;;14.41;100.00;101217.56;5073895;28;20454;-72
2021/08/11 01:36:29;;;;;;;5.83;1.50;;;;;;;14.44;100.00;101211.50;5073958;28;20429;-72
2021/08/11 01:39:00;;;;;;;1.30;1.20;;;;;;;14.43;100.00;101212.59;5074196;28;20428;-73
2021/08/11 01:41:31;;;;;;;3.20;2.10;;;;;;;14.42;100.00;101213.72;5074340;28;20462;-73
2021/08/11 01:43:58;;;;;;;2.10;1.27;;;;;;;14.39;100.00;101218.69;5074023;28;20650;-73
2021/08/11 01:46:28;;;;;;;3.50;1.90;;;;;;;14.31;100.00;101219.44;5073807;28;20492;-73
2021/08/11 01:48:59;;;;;;;11.33;1.97;;;;;;;14.17;100.00;101221.44;5074019;28;20441;-73
2021/08/11 01:51:28;;;;;;;2.83;2.10;;;;;;;14.13;100.00;101214.97;5073963;28;20422;-73
2021/08/11 01:53:54;;;;;;;1.67;1.53;;;;;;;14.10;100.00;101218.31;5073656;28;20504;-73
2021/08/11 01:56:21;;;;;;;3.83;1.80;;;;;;;13.96;100.00;101215.66;5073795;28;20445;-73
2021/08/11 01:58:49;;;;;;;1.77;1.43;;;;;;;14.00;100.00;101218.56;5073507;28;20942;-73
2021/08/11 02:01:16;;;;;;;3.33;1.73;;;;;;;14.03;100.00;101217.94;5073643;28;20493;-73
2021/08/11 02:03:44;;;;;;;2.70;2.10;;;;;;;14.05;100.00;101218.44;5073386;28;20462;-73
2021/08/11 02:06:13;;;;;;;5.40;1.93;;;;;;;14.09;100.00;101222.16;5073519;28;20430;-73
2021/08/11 02:08:41;;;;;;;4.87;2.90;;;;;;;14.08;100.00;101215.09;5073674;28;20448;-72
2021/08/11 02:11:08;;;;;;;1.87;1.47;;;;;;;14.10;100.00;101218.31;5073307;28;21072;-73
2021/08/11 02:13:35;;;;;;;3.50;1.50;;;;;;;14.08;100.00;101223.28;5073518;28;20468;-73
2021/08/11 02:16:01;;;;;;;3.27;2.20;;;;;;;14.07;100.00;101221.66;5073545;28;20448;-73
2021/08/11 02:18:27;;;;;;;2.30;1.77;;;;;;;14.04;100.00;101225.00;5073523;28;20630;-73
2021/08/11 02:20:54;;;;;;;2.77;2.10;;;;;;;13.94;100.00;101227.94;5073403;28;20481;-73
2021/08/11 02:23:22;;;;;;;4.20;2.70;;;;;;;14.01;100.00;101231.88;5073325;28;20441;-74
2021/08/11 02:25:51;;;;;;;2.77;1.60;;;;;;;14.07;100.00;101240.72;5073427;28;20445;-73
2021/08/11 02:28:24;;;;;;;10.87;3.13;;;;;;;14.03;100.00;101232.38;5073125;28;20433;-73
2021/08/11 02:30:59;;;;;;;3.00;1.60;;;;;;;14.10;100.00;101234.66;5073460;28;20425;-73
2021/08/11 02:33:29;;;;;;;5.03;2.63;;;;;;;14.06;100.00;101239.13;5073304;28;20479;-73
2021/08/11 02:35:58;;;;;;;1.97;1.60;;;;;;;13.95;100.00;101235.03;5073558;28;20465;-73
2021/08/11 02:38:32;;;;;;;2.80;1.93;;;;;;;13.98;100.00;101239.84;5073274;28;20440;-73
2021/08/11 02:41:04;;;;;;;3.70;2.50;;;;;;;14.00;100.00;101235.72;5073116;28;20476;-73
2021/08/11 02:43:36;;;;;;;2.53;1.90;;;;;;;14.05;100.00;101237.50;5073103;28;20473;-73
2021/08/11 02:46:07;;;;;;;2.90;1.80;;;;;;;14.02;100.00;101243.56;5073058;28;20518;-73
2021/08/11 02:48:37;;;;;;;3.10;2.13;;;;;;;14.04;100.00;101247.59;5072888;28;20907;-73
2021/08/11 02:51:05;;;;;;;2.83;2.37;;;;;;;13.89;100.00;101246.00;5072822;28;20437;-73
2021/08/11 02:53:35;;;;;;;2.93;1.30;;;;;;;13.86;100.00;101245.84;5073055;28;20480;-73
2021/08/11 02:56:02;;;;;;;5.17;2.17;;;;;;;13.78;100.00;101244.66;5073066;28;20440;-73
2021/08/11 02:58:29;;;;;;;3.60;2.27;;;;;;;13.75;100.00;101245.25;5073073;28;20452;-73
2021/08/11 03:00:57;;;;;;;2.50;2.00;;;;;;;13.77;100.00;101250.41;5072961;28;20481;-73
2021/08/11 03:03:24;;;;;;;3.97;2.20;;;;;;;13.69;100.00;101246.47;5073184;28;20437;-73
2021/08/11 03:05:50;;;;;;;2.97;1.90;;;;;;;13.63;100.00;101248.53;5073010;28;20452;-73
2021/08/11 03:08:18;;;;;;;3.30;1.73;;;;;;;13.73;100.00;101250.22;5072978;28;20436;-73
2021/08/11 03:10:45;;;;;;;4.53;2.40;;;;;;;13.74;100.00;101251.81;5072964;28;20449;-73
2021/08/11 03:13:14;;;;;;;4.77;2.43;;;;;;;13.62;100.00;101254.25;5072491;28;20518;-73
2021/08/11 03:15:42;;;;;;;3.63;1.93;;;;;;;13.67;100.00;101251.41;5072863;28;20491;-73
2021/08/11 03:18:09;;;;;;;4.20;2.20;;;;;;;13.73;100.00;101255.66;5076568;28;20441;-73
2021/08/11 03:20:36;;;;;;;4.33;3.03;;;;;;;13.75;100.00;101256.13;5076786;28;20513;-73
2021/08/11 03:23:03;;;;;;;15.33;2.30;;;;;;;13.65;100.00;101255.56;5076475;28;20443;-73
2021/08/11 03:25:30;;;;;;;3.13;2.27;;;;;;;13.53;100.00;101253.34;5076690;28;20472;-73
2021/08/11 03:27:57;;;;;;;4.57;2.50;;;;;;;13.57;100.00;101249.72;5076694;28;20445;-73
2021/08/11 03:30:24;;;;;;;3.30;2.40;;;;;;;13.59;100.00;101246.69;5076672;28;20441;-72
2021/08/11 03:32:50;;;;;;;4.33;2.60;;;;;;;13.62;100.00;101246.09;5076367;28;20433;-73
2021/08/11 03:35:17;;;;;;;16.07;3.10;;;;;;;13.69;100.00;101246.47;5076458;28;20499;-72
2021/08/11 03:37:43;;;;;;;3.33;2.73;;;;;;;13.56;100.00;101242.66;5076473;28;20441;-72
2021/08/11 03:40:11;;;;;;;5.63;2.53;;;;;;;13.56;100.00;101245.38;5076570;28;20444;-73
2021/08/11 03:42:37;;;;;;;3.80;2.00;;;;;;;13.59;100.00;101235.78;5076329;28;20476;-72
2021/08/11 03:45:06;;;;;;;3.53;2.37;;;;;;;13.55;100.00;101240.25;5076210;28;20491;-73
2021/08/11 03:47:32;;;;;;;2.40;1.77;;;;;;;13.53;100.00;101240.53;5075928;28;20460;-72
2021/08/11 03:49:59;;;;;;;3.17;2.30;;;;;;;13.36;100.00;101245.81;5076491;28;20441;-72
2021/08/11 03:52:25;;;;;;;4.77;2.57;;;;;;;13.28;100.00;101246.50;5076154;28;20445;-72
2021/08/11 03:54:52;;;;;;;2.23;1.80;;;;;;;13.18;100.00;101242.06;5076069;28;20480;-73
2021/08/11 03:57:18;;;;;;;2.90;2.70;;;;;;;13.17;100.00;101262.22;5076104;28;20445;-73
2021/08/11 03:59:44;;;;;;;3.87;2.40;;;;;;;13.27;100.00;101256.59;5076088;28;20448;-72
2021/08/11 04:02:12;;;;;;;7.13;3.30;;;;;;;13.32;100.00;101258.41;5077017;28;20489;-72
2021/08/11 04:04:40;;;;;;;6.70;3.77;;;;;;;13.41;100.00;101263.94;5075980;28;20541;-72
2021/08/11 04:07:06;;;;;;;9.10;2.80;;;;;;;13.41;100.00;101261.22;5075870;28;20452;-72
2021/08/11 04:09:33;;;;;;;6.67;3.20;;;;;;;13.36;100.00;101265.66;5075633;28;20456;-72
2021/08/11 04:11:59;;;;;;;4.00;2.30;;;;;;;13.35;100.00;101260.53;5075879;28;20433;-72
2021/08/11 04:14:25;;;;;;;5.23;3.13;;;;;;;13.30;100.00;101264.16;5075765;28;20465;-72
2021/08/11 04:16:52;;;;;;;4.77;2.23;;;;;;;13.41;100.00;101259.31;5075814;28;20441;-72
2021/08/11 04:19:19;;;;;;;5.07;3.13;;;;;;;13.45;100.00;101259.50;5075732;28;20445;-73
2021/08/11 04:21:46;;;;;;;3.07;2.50;;;;;;;13.34;100.00;101273.31;5075676;28;20481;-73
2021/08/11 04:24:13;;;;;;;5.20;3.00;;;;;;;13.42;100.00;101276.47;5075589;28;20450;-72
2021/08/11 04:26:39;;;;;;;6.87;2.67;;;;;;;13.44;100.00;101282.41;5075217;28;20825;-72
2021/08/11 04:29:06;;;;;;;4.43;2.47;;;;;;;13.48;100.00;101276.03;5075285;28;20445;-72
2021/08/11 04:31:32;;;;;;;4.30;2.20;;;;;;;13.42;100.00;101276.47;5075536;28;20441;-73
2021/08/11 04:33:59;;;;;;;3.60;2.90;;;;;;;13.55;100.00;101279.16;5075447;28;20465;-71
2021/08/11 04:36:26;;;;;;;6.13;2.90;;;;;;;13.62;100.00;101286.91;5075468;28;20452;-72
2021/08/11 04:38:53;;;;;;;2.20;1.90;;;;;;;13.70;100.00;101285.41;5075417;28;20499;-71
2021/08/11 04:41:19;;;;;;;3.47;2.50;;;;;;;13.59;100.00;101285.63;5075288;28;20481;-71
2021/08/11 04:43:46;;;;;;;6.03;3.17;;;;;;;13.53;100.00;101283.28;5075288;28;20461;-72
2021/08/11 04:46:13;;;;;;;3.73;2.83;;;;;;;13.58;100.00;101294.06;5075153;28;20461;-72
2021/08/11 04:48:39;;;;;;;17.20;3.20;;;;;;;13.53;100.00;101291.47;5075525;28;20445;-72
2021/08/11 04:51:05;;;;;;;6.80;3.40;;;;;;;13.60;100.00;101295.41;5074879;28;20995;-72
2021/08/11 04:53:33;;;;;;;3.00;2.13;;;;;;;13.72;100.00;101296.78;5075061;28;20464;-71
2021/08/11 04:56:00;;;;;;;4.57;3.30;;;;;;;13.75;100.00;101299.69;5075346;28;20441;-71
2021/08/11 04:58:26;;;;;;;4.73;2.70;;;;;;;13.83;100.00;101301.72;5074720;28;20934;-72
2021/08/11 05:00:52;;;;;;;4.40;2.57;;;;;;;13.97;100.00;101307.13;5074897;28;20453;-70
2021/08/11 05:03:19;;;;;;;4.20;2.80;;;;;;;14.08;100.00;101302.28;5074517;28;20930;-70
2021/08/11 05:05:45;;;;;;;8.90;3.40;;;;;;;14.22;100.00;101307.69;5074865;28;20449;-70
2021/08/11 05:08:12;;;;;;;9.30;4.20;;;;;;;14.28;100.00;101306.44;5074852;28;20449;-72
2021/08/11 05:10:40;;;;;;;5.93;4.00;;;;;;;14.37;100.00;101316.31;5074494;28;20437;-70
2021/08/11 05:13:06;;;;;;;10.13;5.33;;;;;;;14.51;100.00;101315.47;5074775;28;20444;-70
2021/08/11 05:15:33;;;;;;;7.97;3.80;;;;;;;14.58;100.00;101316.66;5074628;28;20442;-70
2021/08/11 05:17:59;;;;;;;9.13;4.90;;;;;;;14.69;100.00;101321.84;5074594;28;20446;-70
2021/08/11 05:20:26;;;;;;;8.00;5.60;;;;;;;14.84;100.00;101324.22;5074582;28;20442;-70
2021/08/11 05:22:53;;;;;;;8.27;5.37;;;;;;;14.89;100.00;101326.81;5074565;28;20485;-70
2021/08/11 05:25:19;;;;;;;9.73;5.67;;;;;;;14.93;100.00;101325.06;5074429;28;20468;-70
2021/08/11 05:27:47;;;;;;;8.07;4.20;;;;;;;14.99;100.00;101325.75;5074384;28;20449;-70
2021/08/11 05:30:14;;;;;;;7.87;3.90;;;;;;;15.02;100.00;101331.38;5074352;28;20452;-70
2021/08/11 05:32:40;;;;;;;23.87;6.70;;;;;;;15.08;100.00;101338.31;5074036;28;20938;-70
2021/08/11 05:35:08;;;;;;;12.53;4.43;;;;;;;15.15;100.00;101335.16;5073951;28;21001;-70
2021/08/11 05:37:34;;;;;;;14.93;4.77;;;;;;;15.18;100.00;101331.78;5074391;28;20441;-70
2021/08/11 05:40:01;;;;;;;8.70;5.10;;;;;;;15.23;100.00;101331.66;5073771;28;20434;-70
2021/08/11 05:42:27;;;;;;;9.70;6.10;;;;;;;15.27;100.00;101332.66;5074152;28;20488;-70
2021/08/11 05:44:55;;;;;;;12.40;6.23;;;;;;;15.36;100.00;101333.47;5073596;28;20547;-70
2021/08/11 05:47:21;;;;;;;11.67;6.17;;;;;;;15.47;100.00;101344.91;5073754;28;20475;-70
2021/08/11 05:49:48;;;;;;;9.20;5.60;;;;;;;15.56;100.00;101334.84;5073723;28;20814;-70
2021/08/11 05:52:15;;;;;;;11.20;5.57;;;;;;;15.67;100.00;101350.94;5073845;28;20452;-70
2021/08/11 05:54:41;;;;;;;9.90;5.50;;;;;;;15.76;100.00;101349.88;5073858;28;20453;-70
2021/08/11 05:57:08;;;;;;;9.47;5.27;;;;;;;15.91;100.00;101345.09;5073833;28;20795;-70
2021/08/11 05:59:37;;;;;;;11.97;6.30;;;;;;;16.00;100.00;101354.09;5073852;28;20436;-71
2021/08/11 06:02:05;;;;;;;19.07;6.60;;;;;;;16.06;100.00;101352.81;5073638;28;21004;-71
2021/08/11 06:04:32;;;;;;;11.20;5.97;;;;;;;16.08;100.00;101356.06;5073608;28;20462;-71
2021/08/11 06:06:58;;;;;;;11.27;5.30;;;;;;;16.17;100.00;101373.28;5073718;28;20506;-71
2021/08/11 06:09:25;;;;;;;13.20;6.43;;;;;;;16.12;100.00;101367.97;5073650;28;20442;-69
2021/08/11 06:11:51;;;;;;;10.70;5.67;;;;;;;16.21;100.00;101376.19;5073689;28;20859;-70
2021/08/11 06:14:18;;;;;;;10.73;6.00;;;;;;;16.29;100.00;101375.34;5073472;28;20465;-69
2021/08/11 06:16:44;;;;;;;16.23;6.80;;;;;;;16.31;100.00;101371.19;5073492;28;20441;-69
2021/08/11 06:19:12;;;;;;;12.67;6.70;;;;;;;16.32;100.00;101375.53;5073486;28;20460;-69
2021/08/11 06:21:39;;;;;;;10.63;6.07;;;;;;;16.41;100.00;101370.06;5073126;28;20880;-69
2021/08/11 06:24:05;;;;;;;12.83;6.50;;;;;;;16.42;100.00;101365.41;5073334;28;20464;-69
2021/08/11 06:26:32;;;;;;;12.93;7.50;;;;;;;16.49;100.00;101372.00;5073446;28;20558;-69
2021/08/11 06:28:58;;;;;;;11.27;7.13;;;;;;;16.54;100.00;101366.38;5073454;28;20444;-69
2021/08/11 06:31:25;;;;;;;8.33;5.40;;;;;;;16.51;100.00;101369.78;5073363;28;20468;-69
2021/08/11 06:33:52;;;;;;;11.33;5.90;;;;;;;16.55;100.00;101375.38;5073314;28;20503;-69
2021/08/11 06:36:20;;;;;;;9.00;5.20;;;;;;;16.65;100.00;101377.81;5073287;28;20445;-69
2021/08/11 06:38:46;;;;;;;11.30;7.27;;;;;;;16.78;100.00;101382.34;5073301;28;20445;-69
2021/08/11 06:41:16;;;;;;;14.83;6.60;;;;;;;16.97;100.00;101387.47;5073259;28;20442;-69
2021/08/11 06:43:43;;;;;;;13.70;6.63;;;;;;;17.12;100.00;101391.63;5072909;28;20453;-69
2021/08/11 06:46:09;;;;;;;10.40;5.30;;;;;;;17.27;100.00;101401.25;5072959;28;20457;-69
2021/08/11 06:48:36;;;;;;;8.87;5.53;;;;;;;17.36;100.00;101397.38;5073219;28;20448;-69
2021/08/11 06:51:02;;;;;;;8.90;5.17;;;;;;;17.39;100.00;101393.94;5073069;28;20449;-69
2021/08/11 06:53:30;;;;;;;10.20;6.83;;;;;;;17.38;100.00;101395.09;5073065;28;20461;-69
2021/08/11 06:55:56;;;;;;;12.23;7.10;;;;;;;17.43;100.00;101398.78;5072785;28;20859;-70
2021/08/11 06:58:23;;;;;;;13.00;7.23;;;;;;;17.51;100.00;101395.22;5073103;28;20448;-72
2021/08/11 07:00:50;;;;;;;12.47;7.27;;;;;;;17.54;100.00;101400.03;5073093;28;20444;-72
2021/08/11 07:03:19;;;;;;;10.87;6.37;;;;;;;17.55;100.00;101398.91;5072858;28;20575;-72
2021/08/11 07:05:45;;;;;;;9.93;6.67;;;;;;;17.45;100.00;101383.63;5072828;28;20429;-72
2021/08/11 07:08:12;;;;;;;10.10;5.70;;;;;;;17.45;100.00;101391.84;5073025;28;20445;-74
2021/08/11 07:10:40;;;;;;;7.10;5.00;;;;;;;17.53;100.00;101390.19;5073085;28;20853;-72
2021/08/11 07:13:06;;;;;;;8.47;5.40;;;;;;;17.62;100.00;101385.50;5072903;28;20449;-70
2021/08/11 07:15:33;;;;;;;13.20;6.20;;;;;;;17.61;100.00;101394.84;5072605;28;20445;-70
2021/08/11 07:17:59;;;;;;;10.83;5.73;;;;;;;17.76;100.00;101393.53;5072556;28;20938;-69
2021/08/11 07:20:27;;;;;;;12.87;7.07;;;;;;;17.94;100.00;101403.28;5072867;28;20445;-70
2021/08/11 07:22:55;;;;;;;11.70;6.40;;;;;;;18.00;100.00;101390.19;5072773;28;20488;-72
2021/08/11 07:25:22;;;;;;;10.17;6.33;;;;;;;17.89;100.00;101407.00;5072723;28;20556;-73
2021/08/11 07:27:49;;;;;;;8.07;5.30;;;;;;;17.98;100.00;101404.22;5072819;28;20445;-72
2021/08/11 07:30:17;;;;;;;9.77;5.33;;;;;;;17.99;100.00;101407.78;5072644;28;20464;-74
2021/08/11 07:32:43;;;;;;;10.77;5.67;;;;;;;18.19;100.00;101415.22;5072710;28;20456;-74
2021/08/11 07:35:11;;;;;;;9.07;4.83;;;;;;;18.13;100.00;101416.56;5072513;28;20837;-75
2021/08/11 07:37:45;;;;;;;8.83;5.40;;;;;;;18.25;100.00;101419.38;5072347;28;20450;-74
2021/08/11 07:40:13;;;;;;;10.87;5.80;;;;;;;18.13;98.96;101408.31;5072661;28;20435;-76
2021/08/11 07:42:39;;;;;;;7.37;5.20;;;;;;;18.19;99.77;101415.22;5072408;28;20481;-74
2021/08/11 07:45:08;;;;;;;7.43;5.00;;;;;;;18.19;99.68;101415.22;5075956;28;20831;-73
2021/08/11 07:47:35;;;;;;;10.90;5.87;;;;;;;18.37;98.61;101424.97;5092118;28;20463;-74
2021/08/11 07:50:01;;;;;;;9.90;5.60;;;;;;;18.54;97.51;101425.97;5092724;28;20454;-74
2021/08/11 07:52:28;;;;;;;12.70;4.90;;;;;;;18.44;97.77;101429.09;5092736;28;20463;-74
2021/08/11 07:54:54;;;;;;;9.33;5.43;;;;;;;18.48;97.46;101439.06;5092579;28;20460;-74
2021/08/11 07:57:21;;;;;;;5.63;4.17;;;;;;;18.41;97.80;101434.09;5092870;28;20440;-74
2021/08/11 07:59:47;;;;;;;8.13;4.70;;;;;;;18.51;98.74;101434.88;5092670;28;20443;-74
2021/08/11 08:02:15;;;;;;;7.77;4.87;;;;;;;18.64;97.22;101436.56;5093073;28;20476;-74
2021/08/11 08:04:41;;;;;;;6.60;4.10;;;;;;;18.66;97.57;101439.75;5096190;28;20497;-74
2021/08/11 08:07:08;;;;;;;8.57;5.33;;;;;;;18.39;97.08;101428.16;5096206;28;20447;-74
2021/08/11 08:09:34;;;;;;;7.50;4.63;;;;;;;18.25;98.79;101433.09;5096193;28;20448;-74
2021/08/11 08:12:01;;;;;;;10.47;5.90;;;;;;;18.30;98.82;101432.91;5096131;28;20444;-74
2021/08/11 08:14:27;;;;;;;6.43;4.63;;;;;;;18.36;99.65;101434.31;5096095;28;20456;-74
2021/08/11 08:16:54;;;;;;;6.43;4.27;;;;;;;18.45;97.68;101438.94;5096102;28;20518;-74
2021/08/11 08:19:22;;;;;;;10.50;5.70;;;;;;;18.54;96.74;101445.16;5096025;28;20440;-74
2021/08/11 08:21:48;;;;;;;9.43;4.90;;;;;;;18.57;96.86;101441.75;5096013;28;20436;-74
2021/08/11 08:24:15;;;;;;;8.80;4.80;;;;;;;18.59;98.16;101447.69;5096097;28;20460;-74
2021/08/11 08:26:42;;;;;;;10.70;5.27;;;;;;;18.70;97.90;101443.47;5095901;28;20444;-74
2021/08/11 08:29:09;;;;;;;9.80;6.30;;;;;;;18.83;96.40;101444.34;5095820;28;20451;-73
2021/08/11 08:31:35;;;;;;;12.73;4.50;;;;;;;18.89;94.60;101443.78;5095891;28;20436;-74
2021/08/11 08:34:02;;;;;;;7.10;4.80;;;;;;;18.76;94.43;101444.84;5095881;28;20539;-76
2021/08/11 08:36:31;;;;;;;7.77;4.43;;;;;;;18.83;94.53;101445.13;5095876;28;20458;-75
2021/08/11 08:38:57;;;;;;;8.50;4.37;;;;;;;18.84;93.81;101451.44;5095383;28;20440;-74
2021/08/11 08:41:24;;;;;;;10.80;5.87;;;;;;;18.95;94.47;101451.81;5095658;28;20455;-74
2021/08/11 08:43:50;;;;;;;6.13;4.00;;;;;;;18.72;94.27;101446.66;5095383;28;20491;-75
2021/08/11 08:46:17;;;;;;;7.23;4.30;;;;;;;18.60;93.99;101447.38;5095180;28;20940;-74
2021/08/11 08:48:44;;;;;;;7.30;3.90;;;;;;;18.76;94.26;101452.28;5095530;28;20522;-74
2021/08/11 08:51:12;;;;;;;7.10;4.97;;;;;;;19.03;92.47;101448.19;5095384;28;20432;-74
2021/08/11 08:53:41;;;;;;;6.90;4.20;;;;;;;19.24;90.95;101457.19;5095604;28;20453;-74
2021/08/11 08:56:08;;;;;;;5.07;3.83;;;;;;;19.35;90.85;101460.34;5083677;28;20842;-74
2021/08/11 08:58:35;;;;;;;6.70;4.13;;;;;;;19.33;89.91;101466.16;5075063;28;20445;-75
2021/08/11 09:01:01;;;;;;;14.00;4.80;;;;;;;19.34;89.81;101461.47;5074965;28;20450;-74
2021/08/11 09:03:27;;;;;;;5.47;3.80;;;;;;;19.29;89.05;101459.72;5074792;28;20860;-74
2021/08/11 09:05:54;;;;;;;6.07;3.87;;;;;;;19.42;90.26;101466.88;5074991;28;20453;-75
2021/08/11 09:08:20;;;;;;;7.33;4.10;;;;;;;19.39;90.67;101464.81;5074993;28;20442;-73
2021/08/11 09:10:48;;;;;;;6.13;4.00;;;;;;;19.43;89.82;101467.66;5074545;28;20846;-77
2021/08/11 09:13:18;;;;;;;7.20;4.27;;;;;;;19.50;88.30;101467.13;5074333;28;20468;-74
2021/08/11 09:15:47;;;;;;;9.93;5.17;;;;;;;19.54;86.06;101468.03;5073820;28;20800;-72
2021/08/11 09:18:15;;;;;;;4.17;3.33;;;;;;;19.55;85.83;101464.94;5074665;28;20440;-74
2021/08/11 09:20:43;;;;;;;7.37;3.00;;;;;;;19.60;87.38;101473.00;5074663;28;20441;-75
2021/08/11 09:23:10;;;;;;;7.03;4.00;;;;;;;19.42;84.94;101464.13;5074428;28;20485;-75
2021/08/11 09:25:55;;;;;;;6.23;3.97;;;;;;;19.40;85.36;101466.41;5074521;28;20438;-75
2021/08/11 09:28:23;;;;;;;7.37;2.87;;;;;;;19.36;82.51;101470.19;5074489;28;20429;-75
2021/08/11 09:30:49;;;;;;;3.30;2.30;;;;;;;19.31;79.93;101471.19;5074086;28;20449;-75
2021/08/11 09:33:22;;;;;;;3.40;2.57;;;;;;;19.39;82.88;101464.81;5073959;28;20444;-75
2021/08/11 09:35:49;;;;;;;5.07;3.17;;;;;;;19.54;84.26;101468.03;5074366;28;20430;-75
2021/08/11 09:38:16;;;;;;;4.77;1.87;;;;;;;19.71;80.58;101473.38;5074298;28;20445;-75
2021/08/11 09:40:44;;;;;;;3.20;1.90;;;;;;;19.83;77.84;101462.41;5074239;28;20441;-75
2021/08/11 09:43:12;;;;;;;3.40;2.40;;;;;;;19.77;77.58;101469.25;5073983;28;20481;-75
2021/08/11 09:45:46;;;;;;;2.47;1.90;;;;;;;19.78;79.03;101473.59;5073932;28;20556;-75
2021/08/11 09:48:13;;;;;;;12.17;2.47;;;;;;;19.88;78.21;101470.44;5073846;28;20922;-75
2021/08/11 09:50:46;;;;;;;5.47;2.70;;;;;;;20.01;77.09;101464.91;5074057;28;20437;-75
2021/08/11 09:53:14;;;;;;;3.50;1.77;;;;;;;20.21;76.57;101469.50;5074106;28;20848;-76
2021/08/11 09:56:04;;;;;;;2.93;2.37;;;;;;;20.43;74.46;101465.47;5073570;28;20465;-75
2021/08/11 09:58:34;;;;;;;3.37;2.00;;;;;;;20.55;80.98;101476.50;5073994;28;20464;-75
2021/08/11 10:01:28;;;;;;;7.70;2.80;;;;;;;20.74;82.48;101464.88;5082122;22;21208;-81
2021/08/11 10:04:03;;;;;;;5.50;2.50;;;;;;;21.01;81.07;101471.53;5076406;28;20469;-81
2021/08/11 10:07:02;;;;;;;;;;;;;;;;;;;;;
2021/08/11 10:09:29;;;;;;;5.00;2.83;;;;;;;20.71;75.71;101476.56;4986760;22;20451;-68
2021/08/11 10:11:56;;;;;;;2.83;2.10;;;;;;;20.59;78.99;101477.41;5053671;28;20462;-68
2021/08/11 10:14:26;;;;;;;3.00;1.83;;;;;;;20.81;79.37;101478.06;5054057;28;20449;-68
2021/08/11 10:16:55;;;;;;;3.00;1.90;;;;;;;20.84;74.54;101480.09;5053657;28;20533;-70
2021/08/11 10:19:24;;;;;;;2.50;1.70;;;;;;;20.87;73.56;101479.41;5052914;28;20462;-69
2021/08/11 10:21:56;;;;;;;2.90;2.00;;;;;;;20.97;72.05;101478.09;5053111;28;20486;-68
2021/08/11 10:24:23;;;;;;;4.70;2.27;;;;;;;21.13;72.60;101479.78;5053433;28;20473;-69
2021/08/11 10:26:52;;;;;;;4.93;2.40;;;;;;;21.29;73.42;101479.00;5053345;28;20443;-69
2021/08/11 10:29:19;;;;;;;6.00;2.73;;;;;;;21.38;71.22;101483.25;5053783;28;20446;-69
2021/08/11 10:31:46;;;;;;;5.97;2.33;;;;;;;21.41;73.49;101487.25;5053578;28;20510;-69
2021/08/11 10:34:16;;;;;;;2.47;1.70;;;;;;;21.60;71.13;101483.78;5053267;28;20851;-69
2021/08/11 10:36:44;;;;;;;2.90;1.90;;;;;;;21.76;69.13;101501.16;5053266;28;20946;-68
2021/08/11 10:39:11;;;;;;;3.70;1.80;;;;;;;21.56;68.31;101482.91;5053171;28;20464;-70
2021/08/11 10:41:39;;;;;;;2.87;2.17;;;;;;;21.55;69.14;101486.81;5053434;28;20470;-69
2021/08/11 10:44:06;;;;;;;3.00;1.60;;;;;;;21.56;69.79;101493.94;5053157;28;20485;-69
2021/08/11 10:46:37;;;;;;;2.47;1.87;;;;;;;21.60;69.15;101489.31;5051746;28;20462;-70
2021/08/11 10:49:05;;;;;;;3.10;1.97;;;;;;;21.60;68.92;101497.59;5053281;28;20423;-69
2021/08/11 10:51:41;;;;;;;3.57;1.63;;;;;;;21.66;67.82;101501.69;5053358;28;20466;-70
2021/08/11 10:54:08;;;;;;;4.00;2.20;;;;;;;21.78;68.04;101500.81;5053525;28;20437;-69
2021/08/11 10:56:45;;;;;;;4.23;2.00;;;;;;;21.65;66.75;101498.16;5052765;28;20941;-74
2021/08/11 10:59:43;;;;;;;4.40;2.00;;;;;;;21.70;69.09;101494.31;5052995;28;20489;-71
2021/08/11 11:02:44;;;;;;;4.40;2.43;;;;;;;21.97;68.16;101497.38;5052431;28;20886;-71
2021/08/11 11:06:04;;;;;;;3.37;1.73;;;;;;;22.16;65.47;101502.97;5053476;28;20479;-71
2021/08/11 11:08:36;;;;;;;3.10;2.20;;;;;;;22.54;67.84;101494.03;5053206;28;20450;-69
2021/08/11 11:11:39;;;;;;;3.03;2.13;;;;;;;22.61;62.12;101496.13;5052758;28;20565;-70
2021/08/11 11:14:08;;;;;;;5.40;2.03;;;;;;;22.65;63.99;101505.28;5052900;28;20961;-71
2021/08/11 11:17:02;;;;;;;1.90;1.63;;;;;;;22.82;62.79;101499.34;5052991;28;20446;-69
2021/08/11 11:19:30;;;;;;;3.70;2.50;;;;;;;22.86;60.22;101511.28;5039514;28;21001;-68
2021/08/11 11:21:56;;;;;;;2.47;1.90;;;;;;;22.82;62.67;101504.88;5053144;28;20834;-71
2021/08/11 11:24:49;;;;;;;5.10;2.80;;;;;;;23.06;62.99;101508.56;5052788;28;20489;-71
2021/08/11 11:27:52;;;;;;;2.03;1.80;;;;;;;23.04;59.81;101508.94;5052577;28;20446;-68